sensor_id;sensor_type;location;lat;lon;timestamp;pressure;altitude;pressure_sealevel;temperature;humidity
29121;BME280;16191;49.548;8.658;2022-12-29T00:00:07;99787.13;;;10.29;100.00
29121;BME280;16191;49.548;8.658;2022-12-29T00:02:41;99780.22;;;10.28;100.00
29121;BME280;16191;49.548;8.658;2022-12-29T00:05:09;99769.06;;;10.25;100.00
29121;BME280;16191;49.548;8.658;2022-12-29T00:07:36;99771.53;;;10.28;100.00
29121;BME280;16191;49.548;8.658;2022-12-29T00:10:03;99773.94;;;10.33;100.00
29121;BME280;16191;49.548;8.658;2022-12-29T00:12:30;99765.13;;;10.35;100.00
29121;BME280;16191;49.548;8.658;2022-12-29T00:15:17;99772.94;;;10.35;100.00
29121;BME280;16191;49.548;8.658;2022-12-29T00:18:02;99768.44;;;10.39;100.00
29121;BME280;16191;49.548;8.658;2022-12-29T00:20:29;99769.34;;;10.38;100.00
29121;BME280;16191;49.548;8.658;2022-12-29T00:23:14;99763.88;;;10.42;100.00
29121;BME280;16191;49.548;8.658;2022-12-29T00:26:03;99770.03;;;10.41;100.00
29121;BME280;16191;49.548;8.658;2022-12-29T00:28:50;99758.00;;;10.39;100.00
29121;BME280;16191;49.548;8.658;2022-12-29T00:31:36;99774.88;;;10.49;100.00
29121;BME280;16191;49.548;8.658;2022-12-29T00:34:21;99759.94;;;10.52;100.00
29121;BME280;16191;49.548;8.658;2022-12-29T00:37:06;99770.38;;;10.52;100.00
29121;BME280;16191;49.548;8.658;2022-12-29T00:39:33;99761.34;;;10.59;100.00
29121;BME280;16191;49.548;8.658;2022-12-29T00:42:18;99756.78;;;10.63;100.00
29121;BME280;16191;49.548;8.658;2022-12-29T00:45:04;99753.34;;;10.62;100.00
29121;BME280;16191;49.548;8.658;2022-12-29T00:47:31;99749.03;;;10.61;100.00
29121;BME280;16191;49.548;8.658;2022-12-29T00:49:58;99753.13;;;10.67;100.00
29121;BME280;16191;49.548;8.658;2022-12-29T00:52:24;99757.97;;;10.57;100.00
29121;BME280;16191;49.548;8.658;2022-12-29T00:54:51;99751.13;;;10.55;100.00
29121;BME280;16191;49.548;8.658;2022-12-29T00:57:17;99759.88;;;10.54;100.00
29121;BME280;16191;49.548;8.658;2022-12-29T00:59:44;99757.41;;;10.51;100.00
29121;BME280;16191;49.548;8.658;2022-12-29T01:02:14;99760.16;;;10.48;100.00
29121;BME280;16191;49.548;8.658;2022-12-29T01:04:42;99751.34;;;10.50;100.00
29121;BME280;16191;49.548;8.658;2022-12-29T01:07:09;99750.34;;;10.53;100.00
29121;BME280;16191;49.548;8.658;2022-12-29T01:09:36;99754.78;;;10.51;100.00
29121;BME280;16191;49.548;8.658;2022-12-29T01:12:21;99750.78;;;10.44;100.00
29121;BME280;16191;49.548;8.658;2022-12-29T01:15:12;99759.22;;;10.49;100.00
29121;BME280;16191;49.548;8.658;2022-12-29T01:17:40;99759.38;;;10.46;100.00
29121;BME280;16191;49.548;8.658;2022-12-29T01:20:07;99744.97;;;10.39;100.00
29121;BME280;16191;49.548;8.658;2022-12-29T01:22:34;99742.81;;;10.47;100.00
29121;BME280;16191;49.548;8.658;2022-12-29T01:25:01;99744.97;;;10.39;100.00
29121;BME280;16191;49.548;8.658;2022-12-29T01:27:48;99743.09;;;10.41;100.00
29121;BME280;16191;49.548;8.658;2022-12-29T01:30:35;99743.50;;;10.50;100.00
29121;BME280;16191;49.548;8.658;2022-12-29T01:33:22;99740.84;;;10.52;100.00
29121;BME280;16191;49.548;8.658;2022-12-29T01:36:14;99750.78;;;10.44;100.00
29121;BME280;16191;49.548;8.658;2022-12-29T01:39:02;99750.34;;;10.53;100.00
29121;BME280;16191;49.548;8.658;2022-12-29T01:41:48;99749.44;;;10.54;100.00
29121;BME280;16191;49.548;8.658;2022-12-29T01:44:51;99743.44;;;10.52;100.00
29121;BME280;16191;49.548;8.658;2022-12-29T01:47:31;99767.63;;;10.55;100.00
29121;BME280;16191;49.548;8.658;2022-12-29T01:50:30;99756.19;;;10.58;100.00
29121;BME280;16191;49.548;8.658;2022-12-29T01:53:01;99756.34;;;10.55;100.00
29121;BME280;16191;49.548;8.658;2022-12-29T01:55:32;99764.94;;;10.57;100.00
29121;BME280;16191;49.548;8.658;2022-12-29T01:58:00;99758.94;;;10.55;100.00
29121;BME280;16191;49.548;8.658;2022-12-29T02:00:30;99756.78;;;10.46;100.00
29121;BME280;16191;49.548;8.658;2022-12-29T02:02:57;99764.75;;;10.43;100.00
29121;BME280;16191;49.548;8.658;2022-12-29T02:05:33;99765.13;;;10.35;100.00
29121;BME280;16191;49.548;8.658;2022-12-29T02:08:02;99756.38;;;10.36;100.00
29121;BME280;16191;49.548;8.658;2022-12-29T02:10:31;99772.09;;;10.35;100.00
29121;BME280;16191;49.548;8.658;2022-12-29T02:12:59;99773.16;;;10.30;100.00
29121;BME280;16191;49.548;8.658;2022-12-29T02:15:36;99763.50;;;10.33;100.00
29121;BME280;16191;49.548;8.658;2022-12-29T02:18:35;99767.28;;;10.44;100.00
29121;BME280;16191;49.548;8.658;2022-12-29T02:24:05;99756.78;;;10.63;100.00
29121;BME280;16191;49.548;8.658;2022-12-29T02:32:37;99756.56;;;10.50;100.00
29121;BME280;16191;49.548;8.658;2022-12-29T02:35:11;99752.13;;;10.52;100.00
29121;BME280;16191;49.548;8.658;2022-12-29T02:40:52;99754.22;;;10.44;100.00
29121;BME280;16191;49.548;8.658;2022-12-29T02:43:47;99740.50;;;10.41;100.00
29121;BME280;16191;49.548;8.658;2022-12-29T02:46:27;99739.50;;;10.43;100.00
29121;BME280;16191;49.548;8.658;2022-12-29T02:49:04;99735.75;;;10.49;100.00
29121;BME280;16191;49.548;8.658;2022-12-29T02:51:58;99729.97;;;10.42;100.00
29121;BME280;16191;49.548;8.658;2022-12-29T02:54:27;99722.78;;;10.47;100.00
29121;BME280;16191;49.548;8.658;2022-12-29T02:59:50;99719.19;;;10.50;100.00
29121;BME280;16191;49.548;8.658;2022-12-29T03:02:39;99717.97;;;10.57;100.00
29121;BME280;16191;49.548;8.658;2022-12-29T03:05:28;99725.19;;;10.52;100.00
29121;BME280;16191;49.548;8.658;2022-12-29T03:08:09;99714.53;;;10.56;100.00
29121;BME280;16191;49.548;8.658;2022-12-29T03:10:48;99712.06;;;10.53;100.00
29121;BME280;16191;49.548;8.658;2022-12-29T03:13:44;99712.84;;;10.55;100.00
29121;BME280;16191;49.548;8.658;2022-12-29T03:16:51;99695.34;;;10.57;100.00
29121;BME280;16191;49.548;8.658;2022-12-29T03:19:23;99699.47;;;10.61;100.00
29121;BME280;16191;49.548;8.658;2022-12-29T03:22:01;99699.03;;;10.53;100.00
29121;BME280;16191;49.548;8.658;2022-12-29T03:25:03;99696.97;;;10.60;100.00
29121;BME280;16191;49.548;8.658;2022-12-29T03:27:39;99692.66;;;10.59;100.00
29121;BME280;16191;49.548;8.658;2022-12-29T03:30:08;99678.84;;;10.57;100.00
29121;BME280;16191;49.548;8.658;2022-12-29T03:32:42;99691.63;;;10.61;100.00
29121;BME280;16191;49.548;8.658;2022-12-29T03:35:13;99678.38;;;10.66;100.00
29121;BME280;16191;49.548;8.658;2022-12-29T03:37:46;99671.25;;;10.70;100.00
29121;BME280;16191;49.548;8.658;2022-12-29T03:40:16;99675.69;;;10.68;100.00
29121;BME280;16191;49.548;8.658;2022-12-29T03:42:45;99681.13;;;10.63;100.00
29121;BME280;16191;49.548;8.658;2022-12-29T03:45:13;99707.16;;;10.64;100.00
29121;BME280;16191;49.548;8.658;2022-12-29T03:47:40;99681.75;;;10.68;100.00
29121;BME280;16191;49.548;8.658;2022-12-29T03:50:08;99671.16;;;10.71;100.00
29121;BME280;16191;49.548;8.658;2022-12-29T03:52:39;99667.94;;;10.66;100.00
29121;BME280;16191;49.548;8.658;2022-12-29T03:55:06;99657.72;;;10.61;100.00
29121;BME280;16191;49.548;8.658;2022-12-29T03:57:33;99651.50;;;10.64;100.00
29121;BME280;16191;49.548;8.658;2022-12-29T04:00:05;99651.75;;;10.59;100.00
29121;BME280;16191;49.548;8.658;2022-12-29T04:02:40;99643.84;;;10.61;100.00
29121;BME280;16191;49.548;8.658;2022-12-29T04:05:10;99647.44;;;10.76;100.00
29121;BME280;16191;49.548;8.658;2022-12-29T04:07:37;99640.06;;;10.67;100.00
29121;BME280;16191;49.548;8.658;2022-12-29T04:10:04;99643.22;;;10.73;100.00
29121;BME280;16191;49.548;8.658;2022-12-29T04:12:33;99650.22;;;10.73;100.00
29121;BME280;16191;49.548;8.658;2022-12-29T04:15:01;99642.22;;;10.76;100.00
29121;BME280;16191;49.548;8.658;2022-12-29T04:17:27;99649.13;;;10.77;100.00
29121;BME280;16191;49.548;8.658;2022-12-29T04:19:54;99645.53;;;10.79;100.00
29121;BME280;16191;49.548;8.658;2022-12-29T04:22:42;99638.38;;;10.83;100.00
29121;BME280;16191;49.548;8.658;2022-12-29T04:25:09;99640.25;;;10.81;100.00
29121;BME280;16191;49.548;8.658;2022-12-29T04:27:36;99634.00;;;10.83;100.00
29121;BME280;16191;49.548;8.658;2022-12-29T04:30:31;99643.78;;;10.80;100.00
29121;BME280;16191;49.548;8.658;2022-12-29T04:33:04;99636.72;;;10.82;100.00
29121;BME280;16191;49.548;8.658;2022-12-29T04:35:31;99635.59;;;10.86;100.00
29121;BME280;16191;49.548;8.658;2022-12-29T04:37:57;99627.94;;;10.83;100.00
29121;BME280;16191;49.548;8.658;2022-12-29T04:40:24;99622.56;;;10.86;100.00
29121;BME280;16191;49.548;8.658;2022-12-29T04:42:51;99626.28;;;10.82;100.00
29121;BME280;16191;49.548;8.658;2022-12-29T04:45:19;99626.78;;;10.88;100.00
29121;BME280;16191;49.548;8.658;2022-12-29T04:48:18;99621.41;;;10.91;100.00
29121;BME280;16191;49.548;8.658;2022-12-29T04:51:03;99623.69;;;10.97;100.00
29121;BME280;16191;49.548;8.658;2022-12-29T04:53:35;99627.31;;;10.95;100.00
29121;BME280;16191;49.548;8.658;2022-12-29T04:56:04;99633.81;;;11.04;100.00
29121;BME280;16191;49.548;8.658;2022-12-29T04:58:31;99629.53;;;11.03;100.00
29121;BME280;16191;49.548;8.658;2022-12-29T05:00:58;99633.97;;;11.01;100.00
29121;BME280;16191;49.548;8.658;2022-12-29T05:03:29;99637.34;;;11.03;100.00
29121;BME280;16191;49.548;8.658;2022-12-29T05:05:56;99634.28;;;10.94;100.00
29121;BME280;16191;49.548;8.658;2022-12-29T05:08:23;99639.66;;;10.91;100.00
29121;BME280;16191;49.548;8.658;2022-12-29T05:10:56;99646.34;;;10.97;100.00
29121;BME280;16191;49.548;8.658;2022-12-29T05:13:23;99646.34;;;10.97;100.00
29121;BME280;16191;49.548;8.658;2022-12-29T05:15:51;99663.16;;;10.91;100.00
29121;BME280;16191;49.548;8.658;2022-12-29T05:18:19;99644.81;;;10.93;100.00
29121;BME280;16191;49.548;8.658;2022-12-29T05:20:47;99651.41;;;11.00;100.00
29121;BME280;16191;49.548;8.658;2022-12-29T05:23:14;99653.34;;;10.96;100.00
29121;BME280;16191;49.548;8.658;2022-12-29T05:25:43;99657.31;;;11.04;100.00
29121;BME280;16191;49.548;8.658;2022-12-29T05:28:21;99644.44;;;11.01;100.00
29121;BME280;16191;49.548;8.658;2022-12-29T05:30:51;99653.03;;;11.03;100.00
29121;BME280;16191;49.548;8.658;2022-12-29T05:33:18;99652.19;;;11.02;100.00
29121;BME280;16191;49.548;8.658;2022-12-29T05:35:47;99652.84;;;11.06;100.00
29121;BME280;16191;49.548;8.658;2022-12-29T05:38:14;99643.59;;;11.00;100.00
29121;BME280;16191;49.548;8.658;2022-12-29T05:40:43;99653.41;;;10.95;100.00
29121;BME280;16191;49.548;8.658;2022-12-29T05:43:26;99644.44;;;11.01;100.00
29121;BME280;16191;49.548;8.658;2022-12-29T05:46:19;99643.25;;;11.06;100.00
29121;BME280;16191;49.548;8.658;2022-12-29T05:48:56;99641.75;;;11.02;100.00
29121;BME280;16191;49.548;8.658;2022-12-29T05:51:43;99635.31;;;11.08;100.00
29121;BME280;16191;49.548;8.658;2022-12-29T05:54:12;99636.53;;;11.02;100.00
29121;BME280;16191;49.548;8.658;2022-12-29T05:56:40;99625.66;;;11.10;100.00
29121;BME280;16191;49.548;8.658;2022-12-29T05:59:07;99644.28;;;11.04;100.00
29121;BME280;16191;49.548;8.658;2022-12-29T06:01:35;99636.25;;;11.07;100.00
29121;BME280;16191;49.548;8.658;2022-12-29T06:04:02;99632.78;;;11.06;100.00
29121;BME280;16191;49.548;8.658;2022-12-29T06:06:30;99649.75;;;11.15;100.00
29121;BME280;16191;49.548;8.658;2022-12-29T06:08:57;99623.88;;;11.10;100.00
29121;BME280;16191;49.548;8.658;2022-12-29T06:11:23;99637.03;;;11.09;100.00
29121;BME280;16191;49.548;8.658;2022-12-29T06:13:57;99626.72;;;11.06;100.00
29121;BME280;16191;49.548;8.658;2022-12-29T06:16:23;99636.16;;;11.08;100.00
29121;BME280;16191;49.548;8.658;2022-12-29T06:18:53;99632.72;;;11.08;100.00
29121;BME280;16191;49.548;8.658;2022-12-29T06:21:21;99624.81;;;11.09;100.00
29121;BME280;16191;49.548;8.658;2022-12-29T06:23:47;99620.09;;;11.00;100.00
29121;BME280;16191;49.548;8.658;2022-12-29T06:26:14;99628.69;;;11.02;100.00
29121;BME280;16191;49.548;8.658;2022-12-29T06:28:42;99613.78;;;11.04;100.00
29121;BME280;16191;49.548;8.658;2022-12-29T06:31:10;99625.88;;;11.05;100.00
29121;BME280;16191;49.548;8.658;2022-12-29T06:33:37;99623.38;;;11.04;100.00
29121;BME280;16191;49.548;8.658;2022-12-29T06:36:05;99618.41;;;10.99;100.00
29121;BME280;16191;49.548;8.658;2022-12-29T06:38:32;99621.84;;;10.99;100.00
29121;BME280;16191;49.548;8.658;2022-12-29T06:40:59;99621.16;;;10.96;100.00
29121;BME280;16191;49.548;8.658;2022-12-29T06:43:44;99615.78;;;10.99;100.00
29121;BME280;16191;49.548;8.658;2022-12-29T06:46:20;99617.41;;;11.02;100.00
29121;BME280;16191;49.548;8.658;2022-12-29T06:48:47;99612.34;;;10.98;100.00
29121;BME280;16191;49.548;8.658;2022-12-29T06:51:13;99620.78;;;11.04;100.00
29121;BME280;16191;49.548;8.658;2022-12-29T06:53:40;99623.97;;;11.09;100.00
29121;BME280;16191;49.548;8.658;2022-12-29T06:56:07;99623.13;;;11.08;100.00
29121;BME280;16191;49.548;8.658;2022-12-29T06:58:34;99618.75;;;11.09;100.00
29121;BME280;16191;49.548;8.658;2022-12-29T07:01:01;99610.41;;;11.02;100.00
29121;BME280;16191;49.548;8.658;2022-12-29T07:03:28;99625.16;;;11.03;100.00
29121;BME280;16191;49.548;8.658;2022-12-29T07:05:54;99620.44;;;11.10;100.00
29121;BME280;16191;49.548;8.658;2022-12-29T07:08:21;99614.44;;;11.08;100.00
29121;BME280;16191;49.548;8.658;2022-12-29T07:10:48;99604.06;;;11.06;100.00
29121;BME280;16191;49.548;8.658;2022-12-29T07:13:15;99610.13;;;11.07;100.00
29121;BME280;16191;49.548;8.658;2022-12-29T07:15:42;99615.28;;;11.08;100.00
29121;BME280;16191;49.548;8.658;2022-12-29T07:18:09;99608.22;;;11.10;100.00
29121;BME280;16191;49.548;8.658;2022-12-29T07:20:35;99618.34;;;11.16;100.00
29121;BME280;16191;49.548;8.658;2022-12-29T07:23:02;99608.50;;;11.21;100.00
29121;BME280;16191;49.548;8.658;2022-12-29T07:25:29;99623.66;;;11.15;100.00
29121;BME280;16191;49.548;8.658;2022-12-29T07:27:56;99622.72;;;11.16;100.00
29121;BME280;16191;49.548;8.658;2022-12-29T07:30:23;99614.03;;;11.15;100.00
29121;BME280;16191;49.548;8.658;2022-12-29T07:32:50;99615.06;;;11.13;100.00
29121;BME280;16191;49.548;8.658;2022-12-29T07:35:17;99633.84;;;11.19;100.00
29121;BME280;16191;49.548;8.658;2022-12-29T07:37:44;99626.94;;;11.18;100.00
29121;BME280;16191;49.548;8.658;2022-12-29T07:40:11;99626.88;;;11.20;100.00
29121;BME280;16191;49.548;8.658;2022-12-29T07:42:38;99633.63;;;11.24;100.00
29121;BME280;16191;49.548;8.658;2022-12-29T07:45:08;99625.44;;;11.30;100.00
29121;BME280;16191;49.548;8.658;2022-12-29T07:47:49;99628.88;;;11.30;100.00
29121;BME280;16191;49.548;8.658;2022-12-29T07:50:17;99633.94;;;11.33;100.00
29121;BME280;16191;49.548;8.658;2022-12-29T07:52:43;99632.41;;;11.29;100.00
29121;BME280;16191;49.548;8.658;2022-12-29T07:55:11;99631.41;;;11.32;100.00
29121;BME280;16191;49.548;8.658;2022-12-29T07:57:38;99638.34;;;11.33;100.00
29121;BME280;16191;49.548;8.658;2022-12-29T08:00:05;99638.94;;;11.38;100.00
29121;BME280;16191;49.548;8.658;2022-12-29T08:02:37;99646.78;;;11.38;100.00
29121;BME280;16191;49.548;8.658;2022-12-29T08:05:05;99654.44;;;11.41;100.00
29121;BME280;16191;49.548;8.658;2022-12-29T08:07:31;99657.06;;;11.41;100.00
29121;BME280;16191;49.548;8.658;2022-12-29T08:09:58;99654.94;;;11.32;100.00
29121;BME280;16191;49.548;8.658;2022-12-29T08:12:25;99648.78;;;11.33;100.00
29121;BME280;16191;49.548;8.658;2022-12-29T08:14:52;99659.91;;;11.37;100.00
29121;BME280;16191;49.548;8.658;2022-12-29T08:17:18;99662.59;;;11.35;100.00
29121;BME280;16191;49.548;8.658;2022-12-29T08:19:45;99670.38;;;11.37;100.00
29121;BME280;16191;49.548;8.658;2022-12-29T08:22:13;99669.97;;;11.44;100.00
29121;BME280;16191;49.548;8.658;2022-12-29T08:24:40;99675.94;;;11.46;100.00
29121;BME280;16191;49.548;8.658;2022-12-29T08:27:07;99689.09;;;11.45;100.00
29121;BME280;16191;49.548;8.658;2022-12-29T08:29:45;99679.31;;;11.48;100.00
29121;BME280;16191;49.548;8.658;2022-12-29T08:32:12;99689.09;;;11.45;100.00
29121;BME280;16191;49.548;8.658;2022-12-29T08:34:39;99681.00;;;11.49;100.00
29121;BME280;16191;49.548;8.658;2022-12-29T08:37:06;99685.56;;;11.46;100.00
29121;BME280;16191;49.548;8.658;2022-12-29T08:39:32;99700.97;;;11.50;100.00
29121;BME280;16191;49.548;8.658;2022-12-29T08:41:59;99687.81;;;11.52;100.00
29121;BME280;16191;49.548;8.658;2022-12-29T08:44:25;99689.66;;;11.50;100.00
29121;BME280;16191;49.548;8.658;2022-12-29T08:46:52;99700.88;;;11.52;100.00
29121;BME280;16191;49.548;8.658;2022-12-29T08:49:19;99695.59;;;11.53;100.00
29121;BME280;16191;49.548;8.658;2022-12-29T08:51:45;99711.09;;;11.56;100.00
29121;BME280;16191;49.548;8.658;2022-12-29T08:54:12;99700.03;;;11.51;100.00
29121;BME280;16191;49.548;8.658;2022-12-29T08:56:39;99704.25;;;11.54;100.00
29121;BME280;16191;49.548;8.658;2022-12-29T08:59:05;99705.09;;;11.54;100.00
29121;BME280;16191;49.548;8.658;2022-12-29T09:01:32;99698.72;;;11.60;100.00
29121;BME280;16191;49.548;8.658;2022-12-29T09:04:00;99696.44;;;11.54;100.00
29121;BME280;16191;49.548;8.658;2022-12-29T09:06:42;99700.97;;;11.50;100.00
29121;BME280;16191;49.548;8.658;2022-12-29T09:09:09;99687.59;;;11.56;100.00
29121;BME280;16191;49.548;8.658;2022-12-29T09:11:36;99696.09;;;11.60;100.00
29121;BME280;16191;49.548;8.658;2022-12-29T09:14:03;99701.41;;;11.58;100.00
29121;BME280;16191;49.548;8.658;2022-12-29T09:16:33;99701.72;;;11.52;100.00
29121;BME280;16191;49.548;8.658;2022-12-29T09:19:01;99711.25;;;11.53;100.00
29121;BME280;16191;49.548;8.658;2022-12-29T09:21:28;99713.25;;;11.48;100.00
29121;BME280;16191;49.548;8.658;2022-12-29T09:23:54;99713.25;;;11.48;100.00
29121;BME280;16191;49.548;8.658;2022-12-29T09:26:21;99716.41;;;11.55;100.00
29121;BME280;16191;49.548;8.658;2022-12-29T09:28:47;99717.25;;;11.55;100.00
29121;BME280;16191;49.548;8.658;2022-12-29T09:31:14;99720.09;;;11.51;100.00
29121;BME280;16191;49.548;8.658;2022-12-29T09:33:40;99711.34;;;11.52;100.00
29121;BME280;16191;49.548;8.658;2022-12-29T09:36:08;99721.03;;;11.50;100.00
29121;BME280;16191;49.548;8.658;2022-12-29T09:38:35;99718.41;;;11.50;100.00
29121;BME280;16191;49.548;8.658;2022-12-29T09:41:11;99720.94;;;11.51;100.00
29121;BME280;16191;49.548;8.658;2022-12-29T09:43:51;99716.41;;;11.55;100.00
29121;BME280;16191;49.548;8.658;2022-12-29T09:46:24;99739.06;;;11.54;100.00
29121;BME280;16191;49.548;8.658;2022-12-29T09:51:25;99741.09;;;11.98;100.00
29121;BME280;16191;49.548;8.658;2022-12-29T09:56:49;99757.91;;;12.10;100.00
29121;BME280;16191;49.548;8.658;2022-12-29T09:59:22;99756.78;;;12.14;100.00
29121;BME280;16191;49.548;8.658;2022-12-29T10:01:57;99755.38;;;12.24;100.00
29121;BME280;16191;49.548;8.658;2022-12-29T10:04:27;99745.75;;;12.24;100.00
29121;BME280;16191;49.548;8.658;2022-12-29T10:07:04;99740.53;;;12.24;100.00
29121;BME280;16191;49.548;8.658;2022-12-29T10:10:15;99742.88;;;12.29;100.00
29121;BME280;16191;49.548;8.658;2022-12-29T10:13:20;99758.00;;;12.24;100.00
29121;BME280;16191;49.548;8.658;2022-12-29T10:18:46;99750.06;;;12.25;100.00
29121;BME280;16191;49.548;8.658;2022-12-29T10:24:07;99753.75;;;12.37;100.00
29121;BME280;16191;49.548;8.658;2022-12-29T10:26:41;99760.09;;;12.33;100.00
29121;BME280;16191;49.548;8.658;2022-12-29T10:29:19;99760.00;;;12.34;100.00
29121;BME280;16191;49.548;8.658;2022-12-29T10:34:24;99758.06;;;12.38;100.00
29121;BME280;16191;49.548;8.658;2022-12-29T10:37:02;99763.97;;;12.42;100.00
29121;BME280;16191;49.548;8.658;2022-12-29T10:42:04;99742.09;;;12.43;100.00
29121;BME280;16191;49.548;8.658;2022-12-29T10:44:36;99760.50;;;12.41;100.00
29121;BME280;16191;49.548;8.658;2022-12-29T10:47:07;99735.34;;;12.39;100.00
29121;BME280;16191;49.548;8.658;2022-12-29T10:49:41;99734.25;;;12.43;100.00
29121;BME280;16191;49.548;8.658;2022-12-29T10:52:10;99728.84;;;12.46;100.00
29121;BME280;16191;49.548;8.658;2022-12-29T10:54:54;99730.28;;;12.51;100.00
29121;BME280;16191;49.548;8.658;2022-12-29T10:57:37;99743.28;;;12.53;100.00
29121;BME280;16191;49.548;8.658;2022-12-29T11:02:45;99735.28;;;12.40;100.00
29121;BME280;16191;49.548;8.658;2022-12-29T11:08:25;99749.03;;;12.44;100.00
29121;BME280;16191;49.548;8.658;2022-12-29T11:11:07;99731.63;;;12.43;100.00
29121;BME280;16191;49.548;8.658;2022-12-29T11:13:59;99735.28;;;12.40;100.00
29121;BME280;16191;49.548;8.658;2022-12-29T11:16:31;99741.59;;;12.36;100.00
29121;BME280;16191;49.548;8.658;2022-12-29T11:18:59;99747.53;;;12.24;100.00
29121;BME280;16191;49.548;8.658;2022-12-29T11:21:35;99748.53;;;12.21;100.00
29121;BME280;16191;49.548;8.658;2022-12-29T11:26:46;99753.59;;;12.24;100.00
29121;BME280;16191;49.548;8.658;2022-12-29T11:29:41;99753.34;;;12.29;100.00
29121;BME280;16191;49.548;8.658;2022-12-29T11:32:23;99757.03;;;12.41;100.00
29121;BME280;16191;49.548;8.658;2022-12-29T11:34:54;99756.28;;;12.39;100.00
29121;BME280;16191;49.548;8.658;2022-12-29T11:37:28;99763.28;;;12.38;100.00
29121;BME280;16191;49.548;8.658;2022-12-29T11:40:02;99761.34;;;12.42;100.00
29121;BME280;16191;49.548;8.658;2022-12-29T11:42:36;99755.03;;;12.46;100.00
29121;BME280;16191;49.548;8.658;2022-12-29T11:45:05;99751.56;;;12.45;100.00
29121;BME280;16191;49.548;8.658;2022-12-29T11:47:36;99751.41;;;12.48;100.00
29121;BME280;16191;49.548;8.658;2022-12-29T11:50:05;99747.09;;;12.47;100.00
29121;BME280;16191;49.548;8.658;2022-12-29T11:52:35;99758.31;;;12.49;100.00
29121;BME280;16191;49.548;8.658;2022-12-29T11:55:17;99755.94;;;12.45;100.00
29121;BME280;16191;49.548;8.658;2022-12-29T11:57:44;99757.88;;;12.41;100.00
29121;BME280;16191;49.548;8.658;2022-12-29T12:00:17;99754.75;;;12.34;100.00
29121;BME280;16191;49.548;8.658;2022-12-29T12:05:39;99743.66;;;12.31;100.00
29121;BME280;16191;49.548;8.658;2022-12-29T12:08:13;99755.03;;;12.30;100.00
29121;BME280;16191;49.548;8.658;2022-12-29T12:10:52;99757.56;;;12.31;100.00
29121;BME280;16191;49.548;8.658;2022-12-29T12:13:35;99763.81;;;12.29;100.00
29121;BME280;16191;49.548;8.658;2022-12-29T12:16:17;99760.34;;;12.28;100.00
29121;BME280;16191;49.548;8.658;2022-12-29T12:18:52;99762.06;;;12.29;100.00
29121;BME280;16191;49.548;8.658;2022-12-29T12:21:34;99760.34;;;12.28;100.00
29121;BME280;16191;49.548;8.658;2022-12-29T12:27:01;99761.88;;;12.32;100.00
29121;BME280;16191;49.548;8.658;2022-12-29T12:29:39;99768.59;;;12.36;100.00
29121;BME280;16191;49.548;8.658;2022-12-29T12:32:15;99790.22;;;12.40;100.00
29121;BME280;16191;49.548;8.658;2022-12-29T12:34:44;99775.81;;;12.33;100.00
29121;BME280;16191;49.548;8.658;2022-12-29T12:37:25;99783.22;;;12.25;100.00
29121;BME280;16191;49.548;8.658;2022-12-29T12:40:26;99767.53;;;12.25;100.00
29121;BME280;16191;49.548;8.658;2022-12-29T12:43:22;99789.53;;;12.21;99.55
29121;BME280;16191;49.548;8.658;2022-12-29T12:46:08;99773.94;;;12.19;100.00
29121;BME280;16191;49.548;8.658;2022-12-29T12:49:05;99772.31;;;12.17;100.00
29121;BME280;16191;49.548;8.658;2022-12-29T12:52:13;99765.25;;;12.19;100.00
29121;BME280;16191;49.548;8.658;2022-12-29T13:00:25;99756.47;;;12.04;100.00
29121;BME280;16191;49.548;8.658;2022-12-29T13:03:26;99750.84;;;12.12;100.00
29121;BME280;16191;49.548;8.658;2022-12-29T13:06:07;99754.78;;;12.03;100.00
29121;BME280;16191;49.548;8.658;2022-12-29T13:08:43;99747.69;;;12.05;100.00
29121;BME280;16191;49.548;8.658;2022-12-29T13:11:28;99738.75;;;12.25;100.00
29121;BME280;16191;49.548;8.658;2022-12-29T13:16:58;99748.38;;;12.24;100.00
29121;BME280;16191;49.548;8.658;2022-12-29T13:22:17;99743.31;;;12.21;100.00
29121;BME280;16191;49.548;8.658;2022-12-29T13:27:29;99733.84;;;12.19;100.00
29121;BME280;16191;49.548;8.658;2022-12-29T13:30:16;99747.00;;;12.17;100.00
29121;BME280;16191;49.548;8.658;2022-12-29T13:32:59;99754.69;;;12.20;100.00
29121;BME280;16191;49.548;8.658;2022-12-29T13:38:45;99751.84;;;12.09;100.00
29121;BME280;16191;49.548;8.658;2022-12-29T13:41:18;99737.66;;;11.97;100.00
29121;BME280;16191;49.548;8.658;2022-12-29T13:43:47;99743.97;;;11.93;100.00
29121;BME280;16191;49.548;8.658;2022-12-29T13:46:19;99739.09;;;11.87;100.00
29121;BME280;16191;49.548;8.658;2022-12-29T13:49:08;99748.88;;;11.84;100.00
29121;BME280;16191;49.548;8.658;2022-12-29T13:51:43;99743.81;;;11.81;100.00
29121;BME280;16191;49.548;8.658;2022-12-29T13:54:37;99754.53;;;11.75;100.00
29121;BME280;16191;49.548;8.658;2022-12-29T13:59:56;99750.75;;;11.64;100.00
29121;BME280;16191;49.548;8.658;2022-12-29T14:07:57;99762.31;;;11.43;100.00
29121;BME280;16191;49.548;8.658;2022-12-29T14:13:03;99773.72;;;11.25;100.00
29121;BME280;16191;49.548;8.658;2022-12-29T14:15:32;99776.16;;;11.11;100.00
29121;BME280;16191;49.548;8.658;2022-12-29T14:18:17;99785.06;;;11.07;100.00
29121;BME280;16191;49.548;8.658;2022-12-29T14:20:57;99776.03;;;10.96;100.00
29121;BME280;16191;49.548;8.658;2022-12-29T14:28:39;99785.97;;;10.71;100.00
29121;BME280;16191;49.548;8.658;2022-12-29T14:36:39;99789.34;;;10.56;100.00
29121;BME280;16191;49.548;8.658;2022-12-29T14:39:35;99793.84;;;10.52;100.00
29121;BME280;16191;49.548;8.658;2022-12-29T14:44:51;99816.00;;;10.44;100.00
29121;BME280;16191;49.548;8.658;2022-12-29T14:47:24;99809.16;;;10.41;100.00
29121;BME280;16191;49.548;8.658;2022-12-29T14:49:53;99799.81;;;10.37;100.00